createdAt,value
2023-01-17T00:02:51.012Z,1.40
2023-01-17T00:06:34.753Z,0.93
2023-01-17T00:10:00.382Z,0.68
2023-01-17T00:13:27.128Z,0.77
2023-01-17T00:16:51.958Z,1.50
2023-01-17T00:20:36.271Z,0.93
2023-01-17T00:24:23.986Z,0.77
2023-01-17T00:27:48.782Z,0.40
2023-01-17T00:31:14.197Z,1.08
2023-01-17T00:34:39.131Z,0.85
2023-01-17T00:38:10.900Z,1.48
2023-01-17T00:41:37.301Z,1.65
2023-01-17T00:45:20.983Z,1.13
2023-01-17T00:49:04.596Z,1.17
2023-01-17T00:52:49.117Z,1.50
2023-01-17T00:56:32.545Z,0.43
2023-01-17T01:00:15.914Z,2.55
2023-01-17T01:03:59.582Z,0.70
2023-01-17T01:07:43.162Z,0.85
2023-01-17T01:11:31.180Z,0.70
2023-01-17T01:15:16.399Z,0.63
2023-01-17T01:19:00.120Z,0.98
2023-01-17T01:22:43.705Z,1.40
2023-01-17T01:26:27.301Z,1.30
2023-01-17T01:30:10.890Z,0.73
2023-01-17T01:33:36.139Z,1.33
2023-01-17T01:37:00.986Z,1.23
2023-01-17T01:40:25.961Z,1.42
2023-01-17T01:43:52.647Z,1.40
2023-01-17T01:47:25.353Z,0.95
2023-01-17T01:50:50.327Z,0.93
2023-01-17T01:54:21.052Z,1.55
2023-01-17T01:57:47.372Z,1.42
2023-01-17T02:01:16.134Z,1.45
2023-01-17T02:04:41.503Z,0.55
2023-01-17T02:08:13.445Z,0.47
2023-01-17T02:11:39.990Z,1.08
2023-01-17T02:15:07.893Z,1.02
2023-01-17T02:18:51.314Z,1.40
2023-01-17T02:22:35.113Z,1.25
2023-01-17T02:26:29.825Z,0.60
2023-01-17T02:30:16.076Z,0.77
2023-01-17T02:34:01.549Z,1.13
2023-01-17T02:37:55.439Z,1.17
2023-01-17T02:41:37.184Z,0.88
2023-01-17T02:45:02.724Z,0.75
2023-01-17T02:48:29.624Z,1.83
2023-01-17T02:52:05.655Z,1.90
2023-01-17T02:55:58.529Z,1.00
2023-01-17T02:59:57.705Z,1.30
2023-01-17T03:03:27.354Z,1.20
2023-01-17T03:07:01.372Z,0.50
2023-01-17T03:10:27.774Z,0.88
2023-01-17T03:13:56.973Z,0.47
2023-01-17T03:17:26.426Z,1.35
2023-01-17T03:20:51.287Z,1.13
2023-01-17T03:24:16.385Z,0.95
2023-01-17T03:27:41.309Z,1.20
2023-01-17T03:31:06.756Z,1.13
2023-01-17T03:34:31.857Z,0.77
2023-01-17T03:37:56.829Z,0.63
2023-01-17T03:41:21.945Z,1.10
2023-01-17T03:44:46.871Z,0.90
2023-01-17T03:48:11.845Z,0.85
2023-01-17T03:51:36.918Z,1.30
2023-01-17T03:55:02.605Z,1.13
2023-01-17T03:58:27.561Z,1.30
2023-01-17T04:01:52.555Z,1.17
2023-01-17T04:05:17.545Z,1.35
2023-01-17T04:08:42.475Z,1.33
2023-01-17T04:12:07.395Z,1.50
2023-01-17T04:15:32.956Z,1.52
2023-01-17T04:18:57.978Z,1.25
2023-01-17T04:22:22.953Z,1.42
2023-01-17T04:25:47.847Z,0.57
2023-01-17T04:29:12.845Z,0.30
2023-01-17T04:32:37.746Z,0.77
2023-01-17T04:36:02.903Z,0.95
2023-01-17T04:39:27.845Z,0.70
2023-01-17T04:42:54.172Z,0.98
2023-01-17T04:46:19.091Z,0.63
2023-01-17T04:49:44.256Z,1.75
2023-01-17T04:53:09.295Z,0.88
2023-01-17T04:56:34.213Z,1.23
2023-01-17T04:59:59.338Z,0.73
2023-01-17T05:03:24.952Z,1.30
2023-01-17T05:06:49.967Z,1.15
2023-01-17T05:10:14.908Z,0.82
2023-01-17T05:13:39.818Z,1.70
2023-01-17T05:17:04.860Z,2.20
2023-01-17T05:20:29.841Z,2.67
2023-01-17T05:23:55.785Z,2.20
2023-01-17T05:27:20.654Z,2.05
2023-01-17T05:30:45.679Z,2.00
2023-01-17T05:34:10.642Z,1.77
2023-01-17T05:37:35.559Z,2.17
2023-01-17T05:41:00.916Z,2.00
2023-01-17T05:44:27.678Z,2.13
2023-01-17T05:47:53.429Z,1.95
2023-01-17T05:51:19.938Z,1.85
2023-01-17T05:54:44.826Z,2.30
2023-01-17T05:58:17.020Z,2.40
2023-01-17T06:01:41.955Z,1.42
2023-01-17T06:05:06.872Z,2.55
2023-01-17T06:08:32.066Z,0.98
2023-01-17T06:11:57.267Z,0.95
2023-01-17T06:15:22.119Z,2.28
2023-01-17T06:18:46.955Z,1.17
2023-01-17T06:22:11.807Z,1.73
2023-01-17T06:25:40.589Z,1.75
2023-01-17T06:29:06.182Z,2.05
2023-01-17T06:32:31.054Z,1.70
2023-01-17T06:35:55.978Z,1.55
2023-01-17T06:39:20.887Z,2.50
2023-01-17T06:42:45.714Z,1.00
2023-01-17T06:46:10.680Z,1.88
2023-01-17T06:49:35.576Z,1.92
2023-01-17T06:53:01.904Z,2.42
2023-01-17T06:56:29.820Z,2.33
2023-01-17T06:59:54.687Z,2.55
2023-01-17T07:03:20.698Z,2.70
2023-01-17T07:10:11.453Z,2.13
2023-01-17T07:20:26.435Z,2.15
2023-01-17T07:23:51.315Z,2.20
2023-01-17T07:27:16.160Z,2.88
2023-01-17T07:30:41.043Z,3.35
2023-01-17T07:34:07.245Z,2.72
2023-01-17T07:37:32.125Z,2.70
2023-01-17T07:41:00.026Z,3.20
2023-01-17T07:44:24.974Z,3.20
2023-01-17T07:47:50.130Z,3.33
2023-01-17T07:51:15.311Z,3.03
2023-01-17T07:54:40.221Z,2.80
2023-01-17T07:58:11.230Z,3.72
2023-01-17T08:01:36.239Z,2.58
2023-01-17T08:05:01.193Z,3.65
2023-01-17T08:08:26.428Z,2.65
2023-01-17T08:11:51.336Z,2.95
2023-01-17T08:15:16.711Z,3.42
2023-01-17T08:18:45.077Z,3.53
2023-01-17T08:22:13.535Z,3.03
2023-01-17T08:25:38.424Z,3.13
2023-01-17T08:29:03.470Z,3.15
2023-01-17T08:32:29.733Z,3.70
2023-01-17T08:35:54.673Z,3.75
2023-01-17T08:39:20.484Z,2.70
2023-01-17T08:42:45.340Z,2.72
2023-01-17T08:46:11.096Z,2.45
2023-01-17T08:49:36.029Z,3.55
2023-01-17T08:53:01.481Z,2.85
2023-01-17T08:56:27.242Z,3.08
2023-01-17T08:59:52.412Z,3.63
2023-01-17T09:03:18.860Z,5.10
2023-01-17T09:06:45.336Z,3.35
2023-01-17T09:10:10.476Z,3.05
2023-01-17T09:13:35.449Z,2.70
2023-01-17T09:17:00.688Z,2.70
2023-01-17T09:20:30.068Z,2.55
2023-01-17T09:23:55.391Z,2.75
2023-01-17T09:27:22.199Z,3.15
2023-01-17T09:30:47.260Z,2.15
2023-01-17T09:34:12.225Z,2.45
2023-01-17T09:37:37.222Z,3.33
2023-01-17T09:41:02.691Z,3.28
2023-01-17T09:44:41.415Z,2.92
2023-01-17T09:51:34.403Z,1.23
2023-01-17T09:54:59.262Z,1.45
2023-01-17T09:58:59.030Z,2.33
2023-01-17T10:02:40.796Z,2.63
2023-01-17T10:06:20.164Z,2.30
2023-01-17T10:10:04.343Z,2.53
2023-01-17T10:13:56.377Z,2.28
2023-01-17T10:17:46.075Z,1.08
2023-01-17T10:21:22.530Z,1.80
2023-01-17T10:25:13.040Z,1.65
2023-01-17T10:28:51.527Z,2.67
2023-01-17T10:32:26.994Z,2.22
2023-01-17T10:35:56.996Z,2.45
2023-01-17T10:39:29.402Z,2.10
2023-01-17T10:43:09.617Z,1.75
2023-01-17T10:46:47.696Z,1.35
2023-01-17T10:50:20.427Z,1.52
2023-01-17T10:54:07.949Z,1.20
2023-01-17T10:57:39.621Z,2.70
2023-01-17T11:01:17.811Z,2.72
2023-01-17T11:04:48.954Z,1.83
2023-01-17T11:08:21.863Z,2.00
2023-01-17T11:11:51.480Z,1.75
2023-01-17T11:15:21.529Z,2.25
2023-01-17T11:18:48.861Z,1.98
2023-01-17T11:22:21.318Z,1.50
2023-01-17T11:26:04.908Z,1.50
2023-01-17T11:29:36.817Z,2.00
2023-01-17T11:36:33.916Z,0.88
2023-01-17T11:40:27.795Z,1.60
2023-01-17T11:43:59.221Z,1.90
2023-01-17T11:47:24.804Z,2.00
2023-01-17T11:50:56.641Z,0.57
2023-01-17T11:54:33.252Z,1.80
2023-01-17T11:57:58.947Z,1.80
2023-01-17T12:01:55.619Z,0.68
2023-01-17T12:05:33.284Z,1.73
2023-01-17T12:09:13.327Z,1.77
2023-01-17T12:13:37.970Z,2.05
2023-01-17T12:17:34.410Z,0.63
2023-01-17T12:21:21.075Z,1.85
2023-01-17T12:25:15.445Z,1.52
2023-01-17T12:29:18.284Z,0.80
2023-01-17T12:32:57.674Z,1.60
2023-01-17T12:36:48.416Z,1.67
2023-01-17T12:40:30.967Z,1.48
2023-01-17T12:44:04.723Z,1.33
2023-01-17T12:47:33.024Z,1.35
2023-01-17T12:51:08.791Z,1.30
2023-01-17T12:54:57.941Z,1.80
2023-01-17T12:58:26.159Z,1.10
2023-01-17T13:02:00.580Z,1.50
2023-01-17T13:05:36.712Z,1.50
2023-01-17T13:09:10.044Z,1.67
2023-01-17T13:12:50.365Z,1.70
2023-01-17T13:16:18.077Z,1.60
2023-01-17T13:19:52.833Z,1.40
2023-01-17T13:23:30.504Z,1.50
2023-01-17T13:27:06.230Z,0.73
2023-01-17T13:30:37.171Z,1.70
2023-01-17T13:34:25.900Z,1.08
2023-01-17T13:38:03.896Z,1.40
2023-01-17T13:41:45.545Z,1.48
2023-01-17T13:45:30.142Z,1.15
2023-01-17T13:49:20.296Z,1.08
2023-01-17T13:53:24.345Z,1.42
2023-01-17T13:56:49.756Z,1.17
2023-01-17T14:00:27.647Z,1.05
2023-01-17T14:03:52.553Z,1.25
2023-01-17T14:07:32.523Z,1.52
2023-01-17T14:11:04.634Z,1.25
2023-01-17T14:18:38.079Z,1.35
2023-01-17T14:22:19.835Z,1.42
2023-01-17T14:26:19.038Z,1.30
2023-01-17T14:29:52.231Z,1.08
2023-01-17T14:33:27.137Z,1.35
2023-01-17T14:37:03.982Z,1.67
2023-01-17T14:40:30.731Z,1.60
2023-01-17T14:44:03.094Z,1.40
2023-01-17T14:47:30.685Z,1.52
2023-01-17T14:51:22.568Z,1.30
2023-01-17T14:54:54.944Z,1.23
2023-01-17T14:58:29.951Z,1.80
2023-01-17T15:02:07.702Z,1.90
2023-01-17T15:09:00.930Z,2.08
2023-01-17T15:12:27.528Z,2.08
2023-01-17T15:16:02.034Z,2.00
2023-01-17T15:19:26.928Z,1.80
2023-01-17T15:22:52.845Z,1.88
2023-01-17T15:26:18.371Z,2.13
2023-01-17T15:29:46.801Z,1.77
2023-01-17T15:33:24.521Z,2.28
2023-01-17T15:37:01.398Z,2.40
2023-01-17T15:40:31.242Z,1.75
2023-01-17T15:43:58.678Z,2.00
2023-01-17T15:47:29.353Z,2.20
2023-01-17T15:50:57.734Z,2.00
2023-01-17T15:54:34.507Z,2.30
2023-01-17T15:58:04.412Z,2.08
2023-01-17T16:01:34.933Z,2.10
2023-01-17T16:05:00.712Z,2.20
2023-01-17T16:08:32.719Z,2.58
2023-01-17T16:12:00.614Z,2.20
2023-01-17T16:15:25.886Z,2.35
2023-01-17T16:18:55.633Z,2.22
2023-01-17T16:22:22.269Z,2.42
2023-01-17T16:25:47.587Z,2.30
2023-01-17T16:29:12.558Z,1.95
2023-01-17T16:32:37.527Z,2.28
2023-01-17T16:36:02.632Z,2.50
2023-01-17T16:39:28.189Z,2.55
2023-01-17T16:42:58.404Z,2.63
2023-01-17T16:46:23.573Z,2.17
2023-01-17T16:49:48.487Z,2.80
2023-01-17T16:53:16.754Z,3.10
2023-01-17T16:56:42.368Z,2.90
2023-01-17T17:00:08.489Z,2.63
2023-01-17T17:03:33.495Z,2.10
2023-01-17T17:06:59.009Z,2.60
2023-01-17T17:10:25.202Z,2.45
2023-01-17T17:13:50.379Z,2.45
2023-01-17T17:17:16.916Z,2.53
2023-01-17T17:20:42.155Z,2.50
2023-01-17T17:24:07.051Z,2.70
2023-01-17T17:27:32.999Z,2.50
2023-01-17T17:34:29.190Z,2.50
2023-01-17T17:37:54.525Z,2.50
2023-01-17T17:41:21.069Z,2.53
2023-01-17T17:44:46.129Z,2.60
2023-01-17T17:48:11.315Z,2.78
2023-01-17T17:51:37.344Z,2.10
2023-01-17T17:55:04.212Z,2.78
2023-01-17T17:58:30.498Z,2.47
2023-01-17T18:02:00.016Z,2.55
2023-01-17T18:05:25.300Z,2.40
2023-01-17T18:08:52.126Z,2.45
2023-01-17T18:12:21.477Z,2.70
2023-01-17T18:15:46.572Z,2.60
2023-01-17T18:19:12.974Z,2.20
2023-01-17T18:22:38.064Z,3.00
2023-01-17T18:26:03.172Z,2.90
2023-01-17T18:29:28.125Z,2.78
2023-01-17T18:32:53.116Z,1.88
2023-01-17T18:36:18.573Z,2.30
2023-01-17T18:39:44.362Z,1.83
2023-01-17T18:43:09.221Z,2.60
2023-01-17T18:46:34.365Z,2.28
2023-01-17T18:49:59.288Z,2.33
2023-01-17T18:53:27.081Z,2.00
2023-01-17T18:56:56.315Z,1.83
2023-01-17T19:00:21.501Z,2.17
2023-01-17T19:03:47.294Z,1.80
2023-01-17T19:07:13.761Z,1.10
2023-01-17T19:10:38.803Z,2.15
2023-01-17T19:14:04.142Z,2.28
2023-01-17T19:17:30.605Z,4.55
2023-01-17T19:20:55.792Z,2.92
2023-01-17T19:24:20.877Z,2.55
2023-01-17T19:27:48.192Z,2.50
2023-01-17T19:31:16.195Z,2.15
2023-01-17T19:34:42.605Z,2.92
2023-01-17T19:38:07.579Z,2.67
2023-01-17T19:41:33.289Z,2.35
2023-01-17T19:44:59.425Z,2.58
2023-01-17T19:48:24.653Z,2.60
2023-01-17T19:51:51.215Z,2.92
2023-01-17T19:55:17.585Z,2.25
2023-01-17T19:58:42.622Z,2.58
2023-01-17T20:02:14.913Z,2.40
2023-01-17T20:09:05.118Z,2.85
2023-01-17T20:12:30.384Z,2.30
2023-01-17T20:15:55.264Z,3.00
2023-01-17T20:19:20.376Z,2.75
2023-01-17T20:22:45.282Z,2.38
2023-01-17T20:26:10.804Z,3.17
2023-01-17T20:29:40.511Z,3.55
2023-01-17T20:33:05.429Z,3.58
2023-01-17T20:36:31.446Z,3.63
2023-01-17T20:43:21.203Z,4.10
2023-01-17T20:46:52.749Z,3.08
2023-01-17T20:50:17.866Z,2.90
2023-01-17T20:53:43.576Z,2.33
2023-01-17T20:57:09.224Z,2.80
2023-01-17T21:00:37.736Z,3.05
2023-01-17T21:04:04.102Z,2.40
2023-01-17T21:07:28.998Z,2.78
2023-01-17T21:10:53.832Z,2.25
2023-01-17T21:14:18.976Z,2.10
2023-01-17T21:17:44.489Z,2.60
2023-01-17T21:21:17.786Z,2.60
2023-01-17T21:24:43.197Z,2.25
2023-01-17T21:28:08.062Z,2.00
2023-01-17T21:31:35.205Z,2.08
2023-01-17T21:35:01.655Z,2.50
2023-01-17T21:38:26.614Z,2.20
2023-01-17T21:41:54.838Z,1.73
2023-01-17T21:45:20.665Z,2.05
2023-01-17T21:48:45.592Z,1.83
2023-01-17T21:52:13.222Z,1.83
2023-01-17T21:55:56.771Z,1.95
2023-01-17T21:59:21.753Z,1.60
2023-01-17T22:02:47.111Z,1.92
2023-01-17T22:06:12.565Z,1.73
2023-01-17T22:09:37.591Z,1.77
2023-01-17T22:13:02.547Z,1.80
2023-01-17T22:16:27.464Z,1.45
2023-01-17T22:19:52.465Z,2.17
2023-01-17T22:23:17.464Z,2.00
2023-01-17T22:26:42.394Z,1.83
2023-01-17T22:30:09.043Z,1.83
2023-01-17T22:33:33.853Z,2.10
2023-01-17T22:36:58.700Z,1.52
2023-01-17T22:40:23.877Z,1.70
2023-01-17T22:43:49.436Z,2.00
2023-01-17T22:47:18.421Z,1.60
2023-01-17T22:50:43.238Z,2.30
2023-01-17T22:54:08.908Z,2.88
2023-01-17T22:57:34.447Z,2.50
2023-01-17T23:01:06.571Z,2.33
2023-01-17T23:04:32.176Z,1.90
2023-01-17T23:07:57.043Z,2.00
2023-01-17T23:11:42.169Z,1.80
2023-01-17T23:15:25.725Z,2.20
2023-01-17T23:19:09.275Z,1.60
2023-01-17T23:22:34.166Z,1.75
2023-01-17T23:26:06.829Z,2.13
2023-01-17T23:29:31.738Z,2.05
2023-01-17T23:32:58.011Z,1.95
2023-01-17T23:36:27.797Z,1.60
2023-01-17T23:39:52.629Z,2.13
2023-01-17T23:43:23.144Z,1.83
2023-01-17T23:46:51.832Z,1.65
2023-01-17T23:50:16.727Z,1.92
2023-01-17T23:53:41.661Z,2.25
2023-01-17T23:57:16.723Z,2.20
